Radiosonde details



Informationen :

Serial : D26013195
Type : Graw DFM
Frequency : 403.210MHz
Launchsite : -
Nearest town : Jackpot, US (23.1km)

Altitude (Max) : 32586m at 2026-09-04 18:46:23
Speed (Max) : 156km/h at altitude 11031m

Average speed : 46km/h
Average ascent rate : 5m/s
Average descent rate : -16m/s
Ascent rate (Max) : 8.4m/s
Descent rate (Max): -35.4m/s

First frame :
KE7DJD at 2026-09-04 18:06:09 at altitude 19112m (OG: 16933m)
Last frame :
KE7DJD at 2026-09-04 19:12:52 at altitude 6823m (OG: 4558m)

Flighttime : 1h6m43s
Ascent time : 40m14s
Descent time : 26m29s
Uptime : -
Killtimer : -

Distance (Straight line distance): 33km

Distance (Route):


Frames : 187


Measurement :

Temperature : -9.4°C
Humidity : 0%
Pressure : 0hPa


Vertical profile (SkewT) :


Elevation profile :



Receiving stations :


Receiver Frames First received Last received
KE7DJD 187 2026-09-04 18:06:09 2026-09-04 19:12:52

Share per receiver :



All frames :


Receiver Date Latitude Longitude Direction Speed Altitude Climb Temperature Humidity Pressure Voltage Killtimer Uptime BKT XDATA
KE7DJD2026-09-04 19:12:5241.82633-114.8585236°113km/h6823m-9.5m/s-9.4°C0%0hPa0V00:00:0000:00:0000:00:00
KE7DJD2026-09-04 19:12:0941.81642-114.8680037°111km/h7236m-9.5m/s-13.1°C0%0hPa0V00:00:0000:00:0000:00:00
KE7DJD2026-09-04 19:11:4641.81155-114.8728939°108km/h7444m-9.7m/s-14.6°C0%0hPa0V00:00:0000:00:0000:00:00
KE7DJD2026-09-04 19:11:2441.80682-114.8777638°108km/h7654m-9.9m/s-16.3°C0%0hPa0V00:00:0000:00:0000:00:00
KE7DJD2026-09-04 19:11:0341.80218-114.8824237°111km/h7852m-9.6m/s-18.1°C0%0hPa0V00:00:0000:00:0000:00:00
KE7DJD2026-09-04 19:10:4341.79733-114.8872639°115km/h8044m-8.8m/s-19.6°C0%0hPa0V00:00:0000:00:0000:00:00
KE7DJD2026-09-04 19:10:2241.79260-114.8921639°120km/h8223m-8.8m/s-20.8°C0%0hPa0V00:00:0000:00:0000:00:00
KE7DJD2026-09-04 19:09:4141.78190-114.9036039°131km/h8589m-8.7m/s-23.3°C0%0hPa0V00:00:0000:00:0000:00:00
KE7DJD2026-09-04 19:09:2041.77668-114.9091240°133km/h8762m-8.9m/s-24.7°C0%0hPa0V00:00:0000:00:0000:00:00
KE7DJD2026-09-04 19:09:0041.77118-114.9151841°135km/h8941m-8.6m/s-25.8°C0%0hPa0V00:00:0000:00:0000:00:00
KE7DJD2026-09-04 19:08:3941.76575-114.9211540°139km/h9113m-8.4m/s-26.9°C0%0hPa0V00:00:0000:00:0000:00:00
KE7DJD2026-09-04 19:08:1941.76013-114.9274241°142km/h9289m-8.3m/s-28.1°C0%0hPa0V00:00:0000:00:0000:00:00
KE7DJD2026-09-04 19:07:5841.75428-114.9344045°148km/h9465m-8.5m/s-28.9°C0%0hPa0V00:00:0000:00:0000:00:00
KE7DJD2026-09-04 19:07:3841.74880-114.9414545°151km/h9636m-8.7m/s-30.4°C0%0hPa0V00:00:0000:00:0000:00:00
KE7DJD2026-09-04 19:07:1741.74338-114.9486647°148km/h9812m-8.7m/s-32.0°C0%0hPa0V00:00:0000:00:0000:00:00
KE7DJD2026-09-04 19:06:5741.73782-114.9560344°148km/h9998m-9.5m/s-33.3°C0%0hPa0V00:00:0000:00:0000:00:00
KE7DJD2026-09-04 19:06:3641.73232-114.9628745°146km/h10177m-9.3m/s-34.3°C0%0hPa0V00:00:0000:00:0000:00:00
KE7DJD2026-09-04 19:05:5541.72151-114.9772447°150km/h10564m-9.6m/s-36.5°C0%0hPa0V00:00:0000:00:0000:00:00
KE7DJD2026-09-04 19:05:3541.71609-114.9850849°153km/h10778m-12.8m/s-38.1°C0%0hPa0V00:00:0000:00:0000:00:00
KE7DJD2026-09-04 19:05:1441.71085-114.9928448°153km/h11031m-12.4m/s-39.9°C0%0hPa0V00:00:0000:00:0000:00:00
KE7DJD2026-09-04 19:04:5441.70553-115.0008550°148km/h11291m-12.8m/s-40.9°C0%0hPa0V00:00:0000:00:0000:00:00
KE7DJD2026-09-04 19:04:3341.70053-115.0087650°146km/h11560m-12.4m/s-41.9°C0%0hPa0V00:00:0000:00:0000:00:00
KE7DJD2026-09-04 19:04:1241.69579-115.0160750°142km/h11800m-11.4m/s-42.7°C0%0hPa0V00:00:0000:00:0000:00:00
KE7DJD2026-09-04 19:03:5241.69099-115.0234949°131km/h12051m-11.8m/s-43.9°C0%0hPa0V00:00:0000:00:0000:00:00
KE7DJD2026-09-04 19:03:3141.68663-115.0299448°128km/h12288m-11.2m/s-45.4°C0%0hPa0V00:00:0000:00:0000:00:00
KE7DJD2026-09-04 19:03:1141.68153-115.0367544°141km/h12513m-10.2m/s-45.6°C0%0hPa0V00:00:0000:00:0000:00:00
KE7DJD2026-09-04 19:02:5041.67645-115.0434447°137km/h12728m-10.6m/s-46.5°C0%0hPa0V00:00:0000:00:0000:00:00
KE7DJD2026-09-04 19:02:3041.67154-115.0498043°124km/h12951m-10.8m/s-46.0°C0%0hPa0V00:00:0000:00:0000:00:00
KE7DJD2026-09-04 19:02:0941.66710-115.0556248°120km/h13169m-11.2m/s-45.8°C0%0hPa0V00:00:0000:00:0000:00:00
KE7DJD2026-09-04 19:01:4941.66277-115.0615945°115km/h13403m-11.7m/s-46.5°C0%0hPa0V00:00:0000:00:0000:00:00
KE7DJD2026-09-04 19:01:2841.65860-115.0669946°117km/h13639m-11.8m/s-47.7°C0%0hPa0V00:00:0000:00:0000:00:00
KE7DJD2026-09-04 19:01:0841.65438-115.0726848°111km/h13879m-10.9m/s-47.9°C0%0hPa0V00:00:0000:00:0000:00:00
KE7DJD2026-09-04 19:00:4741.65050-115.0778346°108km/h14105m-11.2m/s-49.0°C0%0hPa0V00:00:0000:00:0000:00:00
KE7DJD2026-09-04 19:00:2741.64680-115.0832047°99km/h14354m-12.4m/s-49.8°C0%0hPa0V00:00:0000:00:0000:00:00
KE7DJD2026-09-04 19:00:0641.64326-115.0875640°93km/h14605m-12.8m/s-51.7°C0%0hPa0V00:00:0000:00:0000:00:00
KE7DJD2026-09-04 18:59:4641.63933-115.0918940°97km/h14870m-12.6m/s-52.9°C0%0hPa0V00:00:0000:00:0000:00:00
KE7DJD2026-09-04 18:59:2541.63499-115.0966844°113km/h15140m-13.0m/s-52.2°C0%0hPa0V00:00:0000:00:0000:00:00
KE7DJD2026-09-04 18:59:0341.63110-115.1025755°100km/h15411m-13.2m/s-51.8°C0%0hPa0V00:00:0000:00:0000:00:00
KE7DJD2026-09-04 18:58:4341.62817-115.1077752°91km/h15692m-13.4m/s-51.2°C0%0hPa0V00:00:0000:00:0000:00:00
KE7DJD2026-09-04 18:58:2241.62587-115.1111530°40km/h15979m-14.0m/s-46.2°C0%0hPa0V00:00:0000:00:0000:00:00
KE7DJD2026-09-04 18:58:0041.62392-115.1119213°40km/h16280m-15.0m/s-47.8°C0%0hPa0V00:00:0000:00:0000:00:00
KE7DJD2026-09-04 18:57:4041.62192-115.1125310°40km/h16573m-14.1m/s-50.4°C0%0hPa0V00:00:0000:00:0000:00:00
KE7DJD2026-09-04 18:57:1941.61956-115.1129212°51km/h16888m-14.6m/s-53.2°C0%0hPa0V00:00:0000:00:0000:00:00
KE7DJD2026-09-04 18:56:5941.61661-115.1137364km/h17204m-15.0m/s-54.1°C0%0hPa0V00:00:0000:00:0000:00:00
KE7DJD2026-09-04 18:56:3841.61300-115.1151228°78km/h17503m-14.8m/s-53.7°C0%0hPa0V00:00:0000:00:0000:00:00
KE7DJD2026-09-04 18:56:1841.60984-115.1180042°71km/h17807m-16.0m/s-52.0°C0%0hPa0V00:00:0000:00:0000:00:00
KE7DJD2026-09-04 18:55:5841.60774-115.1208252°42km/h18149m-16.8m/s-49.4°C0%0hPa0V00:00:0000:00:0000:00:00
KE7DJD2026-09-04 18:55:3741.60694-115.1221226°20km/h18501m-17.4m/s-47.7°C0%0hPa0V00:00:0000:00:0000:00:00
KE7DJD2026-09-04 18:55:1741.60564-115.1223124km/h18877m-17.6m/s-50.4°C0%0hPa0V00:00:0000:00:0000:00:00
KE7DJD2026-09-04 18:54:5641.60438-115.1228038°29km/h19238m-18.6m/s-51.3°C0%0hPa0V00:00:0000:00:0000:00:00
KE7DJD2026-09-04 18:54:3641.60380-115.12342330°11km/h19635m-19.6m/s-50.6°C0%0hPa0V00:00:0000:00:0000:00:00
KE7DJD2026-09-04 18:54:1541.60284-115.12265345°27km/h20024m-19.8m/s-51.0°C0%0hPa0V00:00:0000:00:0000:00:00
KE7DJD2026-09-04 18:53:5541.60196-115.12225255°4km/h20443m-19.6m/s-48.9°C0%0hPa0V00:00:0000:00:0000:00:00
KE7DJD2026-09-04 18:53:3441.60193-115.12108310°22km/h20858m-21.3m/s-49.7°C0%0hPa0V00:00:0000:00:0000:00:00
KE7DJD2026-09-04 18:53:1441.60116-115.11957314°31km/h21295m-20.6m/s-49.8°C0%0hPa0V00:00:0000:00:0000:00:00
KE7DJD2026-09-04 18:52:5341.60008-115.11901318°18km/h21745m-21.7m/s-49.9°C0%0hPa0V00:00:0000:00:0000:00:00
KE7DJD2026-09-04 18:52:3241.59909-115.11840360°20km/h22184m-22.2m/s-48.3°C0%0hPa0V00:00:0000:00:0000:00:00
KE7DJD2026-09-04 18:52:1241.59847-115.11836226°7km/h22665m-23.3m/s-47.6°C0%0hPa0V00:00:0000:00:0000:00:00
KE7DJD2026-09-04 18:51:5141.59861-115.11727248°18km/h23142m-24.3m/s-47.5°C0%0hPa0V00:00:0000:00:0000:00:00
KE7DJD2026-09-04 18:51:3141.59886-115.11529262°37km/h23700m-26.0m/s-46.7°C0%0hPa0V00:00:0000:00:0000:00:00
KE7DJD2026-09-04 18:51:1041.59944-115.11308252°42km/h24228m-26.7m/s-47.2°C0%0hPa0V00:00:0000:00:0000:00:00
KE7DJD2026-09-04 18:50:5041.59906-115.11034292°26km/h24793m-27.0m/s-44.7°C0%0hPa0V00:00:0000:00:0000:00:00
KE7DJD2026-09-04 18:50:2941.59816-115.10901323°22km/h25342m-28.0m/s-42.6°C0%0hPa0V00:00:0000:00:0000:00:00
KE7DJD2026-09-04 18:50:0941.59773-115.10806277°22km/h25956m-30.1m/s-41.7°C0%0hPa0V00:00:0000:00:0000:00:00
KE7DJD2026-09-04 18:49:4841.59746-115.10728302°20km/h26588m-30.8m/s-42.1°C0%0hPa0V00:00:0000:00:0000:00:00
KE7DJD2026-09-04 18:49:2841.59690-115.1068428°9km/h27239m-33.5m/s-40.2°C0%0hPa0V00:00:0000:00:0000:00:00
KE7DJD2026-09-04 18:49:0741.59688-115.10651262°18km/h27937m-35.4m/s-40.4°C0%0hPa0V00:00:0000:00:0000:00:00
KE7DJD2026-09-04 18:48:2641.59687-115.10458299°15km/h29253m-26.8m/s-39.9°C0%0hPa0V00:00:0000:00:0000:00:00
KE7DJD2026-09-04 18:48:0641.59617-115.10382282°4km/h29798m-26.1m/s-38.1°C0%0hPa0V00:00:0000:00:0000:00:00
KE7DJD2026-09-04 18:47:4441.59621-115.103649km/h30396m-22.9m/s-34.9°C0%0hPa0V00:00:0000:00:0000:00:00
KE7DJD2026-09-04 18:47:2441.59568-115.10218329°20km/h30901m-21.6m/s-34.5°C0%0hPa0V00:00:0000:00:0000:00:00
KE7DJD2026-09-04 18:47:0441.59549-115.10114284°33km/h31480m-28.6m/s-32.8°C0%0hPa0V00:00:0000:00:0000:00:00
KE7DJD2026-09-04 18:46:4341.59459-115.09982276°29km/h32077m-22.2m/s-32.0°C0%0hPa0V00:00:0000:00:0000:00:00
KE7DJD2026-09-04 18:46:2341.59347-115.0984813°58km/h32586m3.4m/s-32.4°C0%0hPa0V00:00:0000:00:0000:00:00
KE7DJD2026-09-04 18:46:0241.59217-115.09765339°40km/h32467m5.7m/s-32.5°C0%0hPa0V00:00:0000:00:0000:00:00
KE7DJD2026-09-04 18:45:4241.59138-115.09643259°44km/h32338m5.0m/s-32.4°C0%0hPa0V00:00:0000:00:0000:00:00
KE7DJD2026-09-04 18:45:2041.59081-115.09494284°29km/h32217m6.0m/s-31.8°C0%0hPa0V00:00:0000:00:0000:00:00
KE7DJD2026-09-04 18:44:5941.59028-115.09351312°16km/h32085m3.5m/s-32.8°C0%0hPa0V00:00:0000:00:0000:00:00
KE7DJD2026-09-04 18:44:3841.58967-115.09196291°38km/h31965m8.0m/s-33.1°C0%0hPa0V00:00:0000:00:0000:00:00
KE7DJD2026-09-04 18:44:1841.58871-115.09020297°27km/h31840m5.8m/s-33.3°C0%0hPa0V00:00:0000:00:0000:00:00
KE7DJD2026-09-04 18:43:5741.58729-115.0889312°31km/h31718m8.4m/s-33.4°C0%0hPa0V00:00:0000:00:0000:00:00
KE7DJD2026-09-04 18:43:3741.58584-115.08739322°22km/h31601m4.3m/s-32.8°C0%0hPa0V00:00:0000:00:0000:00:00
KE7DJD2026-09-04 18:43:1641.58524-115.08561278°33km/h31480m7.5m/s-33.1°C0%0hPa0V00:00:0000:00:0000:00:00
KE7DJD2026-09-04 18:42:5641.58522-115.084107km/h31355m7.9m/s-33.7°C0%0hPa0V00:00:0000:00:0000:00:00
KE7DJD2026-09-04 18:42:3541.58496-115.08327309°15km/h31236m5.6m/s-34.2°C0%0hPa0V00:00:0000:00:0000:00:00
KE7DJD2026-09-04 18:42:1341.58457-115.08144269°31km/h31108m5.8m/s-34.7°C0%0hPa0V00:00:0000:00:0000:00:00
KE7DJD2026-09-04 18:41:5341.58392-115.07995292°24km/h30978m7.2m/s-34.9°C0%0hPa0V00:00:0000:00:0000:00:00
KE7DJD2026-09-04 18:41:3241.58365-115.07834297°27km/h30853m7.1m/s-34.8°C0%0hPa0V00:00:0000:00:0000:00:00
KE7DJD2026-09-04 18:41:1141.58292-115.0768311°29km/h30728m4.6m/s-35.1°C0%0hPa0V00:00:0000:00:0000:00:00
KE7DJD2026-09-04 18:40:5141.58220-115.07510239°42km/h30602m7.5m/s-35.8°C0%0hPa0V00:00:0000:00:0000:00:00
KE7DJD2026-09-04 18:40:2941.58248-115.07387215°18km/h30471m7.2m/s-35.5°C0%0hPa0V00:00:0000:00:0000:00:00
KE7DJD2026-09-04 18:40:0941.58303-115.07347207°22km/h30338m5.6m/s-35.3°C0%0hPa0V00:00:0000:00:0000:00:00
KE7DJD2026-09-04 18:39:2841.58319-115.07324286°16km/h30098m7.4m/s-36.8°C0%0hPa0V00:00:0000:00:0000:00:00
KE7DJD2026-09-04 18:39:0841.58284-115.07222289°18km/h29970m6.5m/s-37.3°C0%0hPa0V00:00:0000:00:0000:00:00
KE7DJD2026-09-04 18:38:4741.58269-115.07163209°15km/h29855m5.7m/s-39.4°C0%0hPa0V00:00:0000:00:0000:00:00
KE7DJD2026-09-04 18:38:2741.58225-115.07096337°31km/h29730m5.8m/s-39.8°C0%0hPa0V00:00:0000:00:0000:00:00
KE7DJD2026-09-04 18:38:0641.58130-115.06996269°18km/h29610m4.5m/s-39.9°C0%0hPa0V00:00:0000:00:0000:00:00
KE7DJD2026-09-04 18:37:4641.58047-115.06863336°38km/h29495m4.1m/s-40.1°C0%0hPa0V00:00:0000:00:0000:00:00
KE7DJD2026-09-04 18:37:2541.57999-115.06761265°20km/h29378m4.2m/s-40.2°C0%0hPa0V00:00:0000:00:0000:00:00
KE7DJD2026-09-04 18:37:0541.57952-115.06633307°27km/h29253m6.5m/s-39.9°C0%0hPa0V00:00:0000:00:0000:00:00
KE7DJD2026-09-04 18:36:4341.57957-115.06541323°13km/h29128m5.3m/s-39.6°C0%0hPa0V00:00:0000:00:0000:00:00
KE7DJD2026-09-04 18:36:2241.58004-115.06520178°33km/h29002m6.5m/s-40.1°C0%0hPa0V00:00:0000:00:0000:00:00
KE7DJD2026-09-04 18:36:0241.58044-115.06431293°20km/h28877m6.2m/s-39.5°C0%0hPa0V00:00:0000:00:0000:00:00
KE7DJD2026-09-04 18:35:4141.58071-115.06287281°20km/h28752m5.2m/s-39.1°C0%0hPa0V00:00:0000:00:0000:00:00
KE7DJD2026-09-04 18:35:2041.58110-115.06185233°7km/h28636m6.1m/s-39.1°C0%0hPa0V00:00:0000:00:0000:00:00
KE7DJD2026-09-04 18:35:0041.58119-115.06119169°11km/h28511m4.8m/s-39.2°C0%0hPa0V00:00:0000:00:0000:00:00
KE7DJD2026-09-04 18:34:3941.58130-115.06045185°7km/h28396m7.0m/s-39.7°C0%0hPa0V00:00:0000:00:0000:00:00
KE7DJD2026-09-04 18:34:1941.58112-115.0605115°22km/h28275m4.9m/s-40.2°C0%0hPa0V00:00:0000:00:0000:00:00
KE7DJD2026-09-04 18:33:5841.58088-115.06027322°27km/h28158m6.3m/s-40.0°C0%0hPa0V00:00:0000:00:0000:00:00
KE7DJD2026-09-04 18:33:3841.58088-115.05964187°26km/h28038m4.4m/s-40.1°C0%0hPa0V00:00:0000:00:0000:00:00
KE7DJD2026-09-04 18:33:1641.58147-115.05870171°24km/h27914m4.8m/s-40.3°C0%0hPa0V00:00:0000:00:0000:00:00
KE7DJD2026-09-04 18:32:5641.58167-115.05806260°4km/h27797m5.6m/s-40.2°C0%0hPa0V00:00:0000:00:0000:00:00
KE7DJD2026-09-04 18:32:3641.58153-115.0580416°13km/h27672m6.4m/s-39.9°C0%0hPa0V00:00:0000:00:0000:00:00
KE7DJD2026-09-04 18:32:1541.58135-115.05797102°16km/h27548m4.0m/s-39.6°C0%0hPa0V00:00:0000:00:0000:00:00
KE7DJD2026-09-04 18:31:5541.58147-115.05784221°4km/h27421m5.8m/s-39.9°C0%0hPa0V00:00:0000:00:0000:00:00
KE7DJD2026-09-04 18:31:3441.58090-115.0580038°20km/h27295m6.4m/s-40.4°C0%0hPa0V00:00:0000:00:0000:00:00
KE7DJD2026-09-04 18:31:1341.57996-115.0582910°27km/h27171m4.7m/s-40.2°C0%0hPa0V00:00:0000:00:0000:00:00
KE7DJD2026-09-04 18:30:5241.57898-115.05807337°31km/h27046m5.9m/s-40.8°C0%0hPa0V00:00:0000:00:0000:00:00
KE7DJD2026-09-04 18:30:3141.57825-115.05705327°42km/h26925m3.1m/s-41.2°C0%0hPa0V00:00:0000:00:0000:00:00
KE7DJD2026-09-04 18:30:1041.57784-115.05649346°27km/h26808m7.0m/s-41.8°C0%0hPa0V00:00:0000:00:0000:00:00
KE7DJD2026-09-04 18:29:5041.57692-115.05537345°27km/h26688m5.6m/s-41.9°C0%0hPa0V00:00:0000:00:0000:00:00
KE7DJD2026-09-04 18:29:0941.57575-115.05271252°18km/h26457m5.3m/s-41.4°C0%0hPa0V00:00:0000:00:0000:00:00
KE7DJD2026-09-04 18:28:4841.57540-115.05181288°4km/h26344m6.3m/s-41.1°C0%0hPa0V00:00:0000:00:0000:00:00
KE7DJD2026-09-04 18:28:2841.57481-115.0514520km/h26227m5.4m/s-41.2°C0%0hPa0V00:00:0000:00:0000:00:00
KE7DJD2026-09-04 18:28:0741.57433-115.05078331°9km/h26113m5.2m/s-41.6°C0%0hPa0V00:00:0000:00:0000:00:00
KE7DJD2026-09-04 18:27:4741.57385-115.0493810°9km/h25993m3.9m/s-41.7°C0%0hPa0V00:00:0000:00:0000:00:00
KE7DJD2026-09-04 18:27:2641.57332-115.04839325°24km/h25880m5.4m/s-41.8°C0%0hPa0V00:00:0000:00:0000:00:00
KE7DJD2026-09-04 18:27:0641.57221-115.04795338°29km/h25760m5.1m/s-41.8°C0%0hPa0V00:00:0000:00:0000:00:00
KE7DJD2026-09-04 18:26:4541.57171-115.04690283°15km/h25643m6.6m/s-41.7°C0%0hPa0V00:00:0000:00:0000:00:00
KE7DJD2026-09-04 18:26:2541.57163-115.04540267°22km/h25521m6.2m/s-41.9°C0%0hPa0V00:00:0000:00:0000:00:00
KE7DJD2026-09-04 18:26:0441.57104-115.04420353°20km/h25398m6.8m/s-42.7°C0%0hPa0V00:00:0000:00:0000:00:00
KE7DJD2026-09-04 18:25:4341.56997-115.04329326°24km/h25285m5.8m/s-43.5°C0%0hPa0V00:00:0000:00:0000:00:00
KE7DJD2026-09-04 18:25:2341.56914-115.04204313°33km/h25161m6.1m/s-44.4°C0%0hPa0V00:00:0000:00:0000:00:00
KE7DJD2026-09-04 18:25:0241.56800-115.04034287°37km/h25048m5.4m/s-44.6°C0%0hPa0V00:00:0000:00:0000:00:00
KE7DJD2026-09-04 18:24:4241.56734-115.03862291°33km/h24933m5.7m/s-45.2°C0%0hPa0V00:00:0000:00:0000:00:00
KE7DJD2026-09-04 18:24:2141.56651-115.03677295°58km/h24822m5.2m/s-46.3°C0%0hPa0V00:00:0000:00:0000:00:00
KE7DJD2026-09-04 18:24:0141.56593-115.03422275°37km/h24710m4.7m/s-46.9°C0%0hPa0V00:00:0000:00:0000:00:00
KE7DJD2026-09-04 18:23:4141.56586-115.03188294°46km/h24603m5.8m/s-47.4°C0%0hPa0V00:00:0000:00:0000:00:00
KE7DJD2026-09-04 18:23:2041.56551-115.02856270°46km/h24491m5.5m/s-47.9°C0%0hPa0V00:00:0000:00:0000:00:00
KE7DJD2026-09-04 18:22:5941.56592-115.02565262°38km/h24384m4.7m/s-47.4°C0%0hPa0V00:00:0000:00:0000:00:00
KE7DJD2026-09-04 18:22:3941.56671-115.02276232°47km/h24268m6.9m/s-46.8°C0%0hPa0V00:00:0000:00:0000:00:00
KE7DJD2026-09-04 18:22:1841.56783-115.02029245°44km/h24152m6.5m/s-46.5°C0%0hPa0V00:00:0000:00:0000:00:00
KE7DJD2026-09-04 18:21:5741.56872-115.01853246°24km/h24031m6.6m/s-46.6°C0%0hPa0V00:00:0000:00:0000:00:00
KE7DJD2026-09-04 18:21:3641.56889-115.01723281°20km/h23912m4.4m/s-46.9°C0%0hPa0V00:00:0000:00:0000:00:00
KE7DJD2026-09-04 18:21:1541.56906-115.01514261°33km/h23791m6.3m/s-46.9°C0%0hPa0V00:00:0000:00:0000:00:00
KE7DJD2026-09-04 18:20:5441.56922-115.01280264°33km/h23681m4.1m/s-47.2°C0%0hPa0V00:00:0000:00:0000:00:00
KE7DJD2026-09-04 18:20:3441.56934-115.01092285°29km/h23567m4.8m/s-46.9°C0%0hPa0V00:00:0000:00:0000:00:00
KE7DJD2026-09-04 18:20:1341.56958-115.00906304°20km/h23454m3.8m/s-46.8°C0%0hPa0V00:00:0000:00:0000:00:00
KE7DJD2026-09-04 18:19:5241.56963-115.00742272°29km/h23342m6.2m/s-47.9°C0%0hPa0V00:00:0000:00:0000:00:00
KE7DJD2026-09-04 18:19:3241.56991-115.00600229°22km/h23230m5.1m/s-47.4°C0%0hPa0V00:00:0000:00:0000:00:00
KE7DJD2026-09-04 18:19:1141.57018-115.00540302°11km/h23119m6.9m/s-47.2°C0%0hPa0V00:00:0000:00:0000:00:00
KE7DJD2026-09-04 18:18:5141.57014-115.00472285°13km/h23003m5.0m/s-47.0°C0%0hPa0V00:00:0000:00:0000:00:00
KE7DJD2026-09-04 18:18:3041.57035-115.00379278°15km/h22893m5.2m/s-46.8°C0%0hPa0V00:00:0000:00:0000:00:00
KE7DJD2026-09-04 18:18:1041.57049-115.00283265°15km/h22779m5.8m/s-46.6°C0%0hPa0V00:00:0000:00:0000:00:00
KE7DJD2026-09-04 18:17:4941.57066-115.00264161°5km/h22666m4.4m/s-47.2°C0%0hPa0V00:00:0000:00:0000:00:00
KE7DJD2026-09-04 18:17:2941.57070-115.0027672°9km/h22552m6.5m/s-47.2°C0%0hPa0V00:00:0000:00:0000:00:00
KE7DJD2026-09-04 18:17:0841.57005-115.0031521°27km/h22441m4.8m/s-47.6°C0%0hPa0V00:00:0000:00:0000:00:00
KE7DJD2026-09-04 18:16:4841.56912-115.00334355°11km/h22328m6.7m/s-48.4°C0%0hPa0V00:00:0000:00:0000:00:00
KE7DJD2026-09-04 18:16:2741.56819-115.00375319°9km/h22219m4.6m/s-48.3°C0%0hPa0V00:00:0000:00:0000:00:00
KE7DJD2026-09-04 18:15:4641.56610-115.00304340°24km/h22004m4.2m/s-49.0°C0%0hPa0V00:00:0000:00:0000:00:00
KE7DJD2026-09-04 18:15:2641.56506-115.00192314°27km/h21896m4.1m/s-49.8°C0%0hPa0V00:00:0000:00:0000:00:00
KE7DJD2026-09-04 18:15:0441.56444-115.00055325°16km/h21790m4.7m/s-49.9°C0%0hPa0V00:00:0000:00:0000:00:00
KE7DJD2026-09-04 18:14:4341.56383-114.99964334°29km/h21681m4.6m/s-49.8°C0%0hPa0V00:00:0000:00:0000:00:00
KE7DJD2026-09-04 18:14:2341.56288-114.9993015°29km/h21579m5.0m/s-50.1°C0%0hPa0V00:00:0000:00:0000:00:00
KE7DJD2026-09-04 18:13:4141.56024-114.99734319°33km/h21376m4.9m/s-49.9°C0%0hPa0V00:00:0000:00:0000:00:00
KE7DJD2026-09-04 18:13:2141.55926-114.99553306°29km/h21274m5.2m/s-49.3°C0%0hPa0V00:00:0000:00:0000:00:00
KE7DJD2026-09-04 18:13:0041.55856-114.99360305°24km/h21170m6.0m/s-49.0°C0%0hPa0V00:00:0000:00:0000:00:00
KE7DJD2026-09-04 18:12:3941.55814-114.99214312°9km/h21065m3.2m/s-49.4°C0%0hPa0V00:00:0000:00:0000:00:00
KE7DJD2026-09-04 18:12:1841.55748-114.99118305°27km/h20964m5.9m/s-50.1°C0%0hPa0V00:00:0000:00:0000:00:00
KE7DJD2026-09-04 18:11:5841.55659-114.98980300°33km/h20866m3.6m/s-49.6°C0%0hPa0V00:00:0000:00:0000:00:00
KE7DJD2026-09-04 18:11:3841.55616-114.98839302°9km/h20760m4.2m/s-49.2°C0%0hPa0V00:00:0000:00:0000:00:00
KE7DJD2026-09-04 18:11:1741.55608-114.98716314°13km/h20659m3.9m/s-48.7°C0%0hPa0V00:00:0000:00:0000:00:00
KE7DJD2026-09-04 18:10:5741.55597-114.98640146°5km/h20547m5.4m/s-49.2°C0%0hPa0V00:00:0000:00:0000:00:00
KE7DJD2026-09-04 18:10:3641.55549-114.9864638°11km/h20444m5.6m/s-49.8°C0%0hPa0V00:00:0000:00:0000:00:00
KE7DJD2026-09-04 18:10:1641.55478-114.9858316km/h20340m4.0m/s-49.8°C0%0hPa0V00:00:0000:00:0000:00:00
KE7DJD2026-09-04 18:09:5541.55363-114.98492335°20km/h20232m5.7m/s-50.2°C0%0hPa0V00:00:0000:00:0000:00:00
KE7DJD2026-09-04 18:09:3541.55264-114.98442357°24km/h20124m4.8m/s-50.8°C0%0hPa0V00:00:0000:00:0000:00:00
KE7DJD2026-09-04 18:09:1441.55165-114.98363328°18km/h20019m5.2m/s-50.7°C0%0hPa0V00:00:0000:00:0000:00:00
KE7DJD2026-09-04 18:08:5441.55067-114.98253311°27km/h19914m5.6m/s-50.4°C0%0hPa0V00:00:0000:00:0000:00:00
KE7DJD2026-09-04 18:08:3341.54987-114.98129285°18km/h19810m7.2m/s-49.9°C0%0hPa0V00:00:0000:00:0000:00:00
KE7DJD2026-09-04 18:08:1341.54944-114.98032307°24km/h19702m5.3m/s-49.3°C0%0hPa0V00:00:0000:00:0000:00:00
KE7DJD2026-09-04 18:07:5141.54897-114.97926306°22km/h19600m3.4m/s-48.3°C0%0hPa0V00:00:0000:00:0000:00:00
KE7DJD2026-09-04 18:07:3141.54856-114.97829303°29km/h19507m5.0m/s-48.2°C0%0hPa0V00:00:0000:00:0000:00:00
KE7DJD2026-09-04 18:07:1141.54811-114.977989km/h19402m4.8m/s-48.0°C0%0hPa0V00:00:0000:00:0000:00:00
KE7DJD2026-09-04 18:06:5041.54777-114.9784370°7km/h19307m5.2m/s-48.0°C0%0hPa0V00:00:0000:00:0000:00:00
KE7DJD2026-09-04 18:06:3041.54712-114.9792827°31km/h19205m4.4m/s-48.8°C0%0hPa0V00:00:0000:00:0000:00:00
KE7DJD2026-09-04 18:06:0941.54608-114.9799421°18km/h19112m5.3m/s-50.6°C0%0hPa0V00:00:0000:00:0000:00:00


GPX KML Map

© wettersonde.net (DO2JMG) - 2026  -  -